Flight Track Log - Related Links

Times and Time Zones

All times are in EDT time to prevent confusion due to time zone crossing. See the NAC723 flight status page for this flight to view local times or setup timezone preferences in your user account.

Time Position Orientation Groundspeed Altitude Reporting Facility
EDT Latitude Longitude Course Direction KTS MPH feet Rate Location/Type
Fri 04:26:51 PM 42.2517 -83.5175 316° Northwest 173 199 1,600  Level Cleveland Center
Fri 04:28:05 PM 42.3022 -83.5844 316° Northwest 273 314 4,500 3,231 Climbing Cleveland Center
Fri 04:29:01 PM 42.3122 -83.6747 279° West 270 311 8,600 3,622 Climbing Cleveland Center
Fri 04:29:56 PM 42.2786 -83.7603 242° Southwest 287 330 11,200 2,296 Climbing Cleveland Center
Fri 04:30:56 PM 42.1861 -83.7919 194° South 367 422 13,000 1,300 Climbing Cleveland Center
Fri 04:31:56 PM 42.0903 -83.7842 177° South 367 422 13,800 2,000 Climbing Cleveland Center
Fri 04:32:56 PM 41.9903 -83.7850 180° South 367 422 17,000 2,600 Climbing Cleveland Center
Fri 04:33:56 PM 41.8817 -83.7878 181° South 372 428 19,000 1,900 Climbing Cleveland Center
Fri 04:34:56 PM 41.7733 -83.7881 180° South 389 448 20,800 2,050 Climbing Cleveland Center
Fri 04:35:56 PM 41.6622 -83.8075 187° South 396 456 23,100 2,400 Climbing Cleveland Center
Fri 04:36:56 PM 41.5781 -83.9061 221° Southwest 377 434 25,600 2,050 Climbing Cleveland Center
Fri 04:37:56 PM 41.5181 -84.0333 238° Southwest 389 448 27,200 1,850 Climbing Cleveland Center
Fri 04:38:56 PM 41.4597 -84.1714 241° Southwest 409 471 29,300 2,300 Climbing Cleveland Center
Fri 04:39:56 PM 41.3992 -84.3011 238° Southwest 416 479 31,800 1,227 Climbing Cleveland Center
Fri 04:41:08 PM 41.3297 -84.4478 238° Southwest 412 474 32,000 90 Climbing Chicago Center
Fri 04:42:10 PM 41.2692 -84.5753 238° Southwest 409 471 32,000  Level Chicago Center
Fri 04:43:12 PM 41.2078 -84.7050 238° Southwest 412 474 32,000  Level Chicago Center
Fri 04:44:14 PM 41.1467 -84.8339 238° Southwest 411 473 32,000 387 Level Chicago Center
Fri 04:45:16 PM 41.0839 -84.9644 237° Southwest 416 479 32,800 968 Climbing Chicago Center
Fri 04:46:18 PM 41.0114 -85.1203 238° Southwest 413 475 34,000 968 Climbing Chicago Center
Fri 04:47:20 PM 40.9464 -85.2439 235° Southwest 410 472 34,800 484 Climbing Chicago Center
Fri 04:48:22 PM 40.8717 -85.3617 230° Southwest 415 478 35,000 97 Climbing Chicago Center
Fri 04:49:24 PM 40.7992 -85.4806 231° Southwest 416 479 35,000 484 Level Chicago Center
Fri 04:50:26 PM 40.7289 -85.5989 232° Southwest 411 473 36,000 480 Climbing Chicago Center
Fri 04:51:29 PM 40.6492 -85.7283 231° Southwest 412 474 36,000  Level Chicago Center
Fri 04:52:31 PM 40.5761 -85.8453 231° Southwest 414 476 36,000  Level Chicago Center
Fri 04:53:33 PM 40.5042 -85.9622 231° Southwest 413 475 36,000  Level Chicago Center
Fri 04:54:35 PM 40.4317 -86.0808 231° Southwest 417 480 36,000  Level Chicago Center
Fri 04:55:37 PM 40.3439 -86.2214 231° Southwest 419 482 36,000  Level Chicago Center
Fri 04:56:39 PM 40.2703 -86.3392 231° Southwest 421 484 36,000  Level Chicago Center
Fri 04:57:41 PM 40.1972 -86.4564 231° Southwest 420 483 36,000  Level Chicago Center
Fri 04:58:43 PM 40.1228 -86.5744 231° Southwest 423 487 36,000  Level Indianapolis Center
Fri 04:59:45 PM 40.0486 -86.6917 230° Southwest 423 487 36,000  Level Indianapolis Center
Fri 05:00:47 PM 39.9581 -86.8325 230° Southwest 426 490 36,000  Level Indianapolis Center
Fri 05:01:49 PM 39.8828 -86.9517 231° Southwest 429 494 36,000  Level Indianapolis Center
Fri 05:02:51 PM 39.8069 -87.0708 230° Southwest 429 494 36,000  Level Indianapolis Center
Fri 05:03:53 PM 39.7306 -87.1886 230° Southwest 430 495 36,000  Level Indianapolis Center
Fri 05:04:55 PM 39.6539 -87.3064 230° Southwest 429 494 36,000  Level Indianapolis Center
Fri 05:05:57 PM 39.5783 -87.4247 230° Southwest 428 493 36,000  Level Indianapolis Center
Fri 05:06:58 PM 39.4869 -87.5658 230° Southwest 429 494 36,000  Level Indianapolis Center
Fri 05:08:00 PM 39.4092 -87.6822 229° Southwest 428 493 36,000  Level Indianapolis Center
Fri 05:09:02 PM 39.3406 -87.7886 230° Southwest 427 491 36,000  Level Indianapolis Center
Fri 05:10:02 PM 39.2617 -87.9075 229° Southwest 431 496 36,000  Level Kansas City Center
Fri 05:11:04 PM 39.1706 -88.0467 230° Southwest 425 489 36,000  Level Kansas City Center
Fri 05:12:06 PM 39.0919 -88.1631 229° Southwest 429 494 36,000  Level Kansas City Center
Fri 05:13:08 PM 39.0144 -88.2803 230° Southwest 429 494 36,000  Level Kansas City Center
Fri 05:14:10 PM 38.9361 -88.3972 229° Southwest 431 496 36,000  Level Kansas City Center
Fri 05:15:12 PM 38.8578 -88.5136 229° Southwest 430 495 36,000  Level Kansas City Center
Fri 05:16:14 PM 38.7783 -88.6300 229° Southwest 432 497 36,000  Level Kansas City Center
Fri 05:17:16 PM 38.6864 -88.7658 229° Southwest 434 499 36,000  Level Kansas City Center
Fri 05:18:18 PM 38.6050 -88.8867 229° Southwest 435 501 36,000  Level Kansas City Center
Fri 05:19:20 PM 38.5200 -89.0136 229° Southwest 437 503 36,000  Level Kansas City Center
Fri 05:20:22 PM 38.4406 -89.1294 229° Southwest 435 501 36,000  Level Kansas City Center
Fri 05:21:24 PM 38.3606 -89.2467 229° Southwest 437 503 36,000  Level Kansas City Center
Fri 05:22:26 PM 38.2744 -89.3703 228° Southwest 434 499 36,000  Level Kansas City Center
Fri 05:23:29 PM 38.1958 -89.4850 229° Southwest 431 496 36,000  Level Kansas City Center
Fri 05:24:31 PM 38.1108 -89.6086 229° Southwest 431 496 36,000  Level Kansas City Center
Fri 05:25:33 PM 38.0317 -89.7228 229° Southwest 431 496 36,000  Level Kansas City Center
Fri 05:26:35 PM 37.9508 -89.8358 228° Southwest 432 497 36,000  Level Kansas City Center
Fri 05:27:37 PM 37.8647 -89.9592 229° Southwest 435 501 36,000  Level Kansas City Center
Fri 05:28:39 PM 37.7936 -90.0628 229° Southwest 440 506 36,000  Level Kansas City Center
Fri 05:29:41 PM 37.7117 -90.1794 228° Southwest 442 509 36,000  Level Kansas City Center
Fri 05:30:43 PM 37.5878 -90.2764 212° Southwest 444 511 36,000  Level Kansas City Center
Fri 05:31:45 PM 37.4706 -90.3311 200° South 447 514 36,000  Level Kansas City Center
Fri 05:32:47 PM 37.3561 -90.3842 200° South 442 509 36,000  Level Kansas City Center
Fri 05:33:20 PM 37.2944 -90.4169 203° Southwest 450 518 36,000  Level Memphis Center
Fri 05:34:20 PM 37.1839 -90.4819 205° Southwest 450 518 36,000  Level Memphis Center
Fri 05:35:20 PM 37.0964 -90.5858 223° Southwest 434 499 36,000  Level Memphis Center
Fri 05:36:20 PM 37.0106 -90.6947 225° Southwest 439 505 36,000  Level Memphis Center
Fri 05:37:20 PM 36.9208 -90.7981 223° Southwest 439 505 36,000  Level Memphis Center
Fri 05:38:20 PM 36.8350 -90.9014 224° Southwest 439 505 36,000  Level Memphis Center
Fri 05:39:20 PM 36.7469 -91.0042 223° Southwest 439 505 36,000  Level Memphis Center
Fri 05:40:20 PM 36.6503 -91.1147 223° Southwest 439 505 36,000  Level Memphis Center
Fri 05:41:20 PM 36.5642 -91.2172 224° Southwest 439 505 36,000  Level Memphis Center
Fri 05:42:20 PM 36.4822 -91.3119 223° Southwest 434 499 36,000  Level Memphis Center
Fri 05:43:20 PM 36.3961 -91.4139 224° Southwest 434 499 36,000  Level Memphis Center
Fri 05:44:20 PM 36.3075 -91.5158 223° Southwest 434 499 36,000  Level Memphis Center
Fri 05:45:20 PM 36.2169 -91.6175 222° Southwest 439 505 36,000  Level Memphis Center
Fri 05:46:20 PM 36.1303 -91.7189 223° Southwest 439 505 36,000  Level Memphis Center
Fri 05:47:20 PM 36.0458 -91.8228 225° Southwest 439 505 36,000  Level Memphis Center
Fri 05:48:20 PM 35.9528 -91.9236 221° Southwest 439 505 36,000  Level Memphis Center
Fri 05:49:20 PM 35.8703 -92.0222 224° Southwest 433 498 36,000  Level Memphis Center
Fri 05:50:20 PM 35.7814 -92.1200 222° Southwest 433 498 36,000  Level Memphis Center
Fri 05:51:20 PM 35.6944 -92.2206 223° Southwest 433 498 36,000  Level Memphis Center
Fri 05:52:20 PM 35.6053 -92.3231 223° Southwest 433 498 36,000  Level Memphis Center
Fri 05:53:20 PM 35.5161 -92.4206 222° Southwest 433 498 36,000  Level Memphis Center
Fri 05:54:20 PM 35.4267 -92.5203 222° Southwest 433 498 36,000  Level Memphis Center
Fri 05:55:20 PM 35.3289 -92.6297 222° Southwest 433 498 36,000  Level Memphis Center
Fri 05:56:20 PM 35.2433 -92.7367 226° Southwest 433 498 36,000  Level Memphis Center
Fri 05:57:20 PM 35.1517 -92.8383 222° Southwest 438 504 36,000  Level Memphis Center
Fri 05:58:20 PM 35.0603 -92.9319 220° Southwest 438 504 36,000  Level Memphis Center
Fri 05:59:20 PM 34.9683 -93.0331 222° Southwest 438 504 36,000  Level Memphis Center
Fri 06:00:20 PM 34.8806 -93.1342 223° Southwest 438 504 36,000  Level Memphis Center
Fri 06:01:20 PM 34.7886 -93.2322 221° Southwest 438 504 36,000  Level Memphis Center
Fri 06:02:20 PM 34.6986 -93.3303 222° Southwest 444 511 36,000  Level Memphis Center
Fri 06:03:20 PM 34.6108 -93.4281 223° Southwest 439 505 36,000  Level Memphis Center
Fri 06:04:20 PM 34.5208 -93.5256 222° Southwest 439 505 36,000  Level Memphis Center
Fri 06:06:46 PM 34.3081 -93.7603 222° Southwest 432 497 36,000  Level Fort Worth Center
Fri 06:07:46 PM 34.2211 -93.8569 223° Southwest 432 497 36,000  Level Fort Worth Center
Fri 06:08:46 PM 34.1339 -93.9508 222° Southwest 432 497 36,000  Level Fort Worth Center
Fri 06:09:46 PM 34.0469 -94.0472 223° Southwest 427 491 36,000  Level Fort Worth Center
Fri 06:10:46 PM 33.9575 -94.1408 221° Southwest 427 491 36,000  Level Fort Worth Center
Fri 06:11:46 PM 33.8681 -94.2367 222° Southwest 427 491 36,000  Level Fort Worth Center
Fri 06:12:46 PM 33.7767 -94.3300 220° Southwest 432 497 36,000  Level Fort Worth Center
Fri 06:13:46 PM 33.6892 -94.4253 222° Southwest 427 491 36,000  Level Fort Worth Center
Fri 06:14:46 PM 33.6078 -94.5106 221° Southwest 427 491 36,000  Level Fort Worth Center
Fri 06:15:46 PM 33.5200 -94.6031 221° Southwest 427 491 36,000  Level Fort Worth Center
Fri 06:16:46 PM 33.4344 -94.6953 222° Southwest 427 491 36,000  Level Fort Worth Center
Fri 06:17:46 PM 33.3467 -94.7850 221° Southwest 427 491 36,000  Level Fort Worth Center
Fri 06:18:46 PM 33.2586 -94.8769 221° Southwest 427 491 36,000  Level Fort Worth Center
Fri 06:19:46 PM 33.1708 -94.9664 220° Southwest 427 491 36,000  Level Fort Worth Center
Fri 06:20:46 PM 33.0847 -95.0581 222° Southwest 427 491 36,000  Level Fort Worth Center
Fri 06:21:46 PM 32.9947 -95.1472 220° Southwest 427 491 36,000  Level Fort Worth Center
Fri 06:22:46 PM 32.9064 -95.2383 221° Southwest 427 491 36,000  Level Fort Worth Center
Fri 06:23:46 PM 32.8244 -95.3269 222° Southwest 418 481 36,000  Level Fort Worth Center
Fri 06:24:46 PM 32.7383 -95.4153 221° Southwest 413 475 36,000  Level Fort Worth Center
Fri 06:25:46 PM 32.6519 -95.5061 222° Southwest 413 475 36,000  Level Fort Worth Center
Fri 06:26:47 PM 32.5636 -95.5942 220° Southwest 419 482 36,000  Level Fort Worth Center
Fri 06:27:46 PM 32.4769 -95.6822 221° Southwest 419 482 36,000  Level Fort Worth Center
Fri 06:28:46 PM 32.3883 -95.7700 220° Southwest 419 482 36,000  Level Fort Worth Center
Fri 06:29:46 PM 32.3019 -95.8575 221° Southwest 424 488 36,000  Level Fort Worth Center
Fri 06:30:46 PM 32.2175 -95.9475 222° Southwest 424 488 36,000  Level Fort Worth Center
Fri 06:31:46 PM 32.1286 -96.0347 220° Southwest 424 488 36,000  Level Fort Worth Center
Fri 06:32:46 PM 32.0439 -96.1192 220° Southwest 419 482 36,000  Level Fort Worth Center
Fri 06:33:46 PM 31.9467 -96.2186 221° Southwest 419 482 36,000  Level Fort Worth Center
Fri 06:34:46 PM 31.8722 -96.2953 221° Southwest 412 474 36,000  Level Fort Worth Center
Fri 06:35:46 PM 31.7853 -96.3794 219° Southwest 412 474 36,000  Level Fort Worth Center
Fri 06:36:46 PM 31.6922 -96.4758 221° Southwest 412 474 36,000  Level Fort Worth Center
Fri 06:37:46 PM 31.6153 -96.5497 219° Southwest 400 460 36,000  Level Fort Worth Center
Fri 06:38:23 PM 31.5603 -96.6092 223° Southwest 402 463 36,000  Level Houston Center
Fri 06:39:25 PM 31.4731 -96.6944 220° Southwest 403 464 36,000  Level Houston Center
Fri 06:40:27 PM 31.3886 -96.7800 221° Southwest 399 459 36,000  Level Houston Center
Fri 06:41:29 PM 31.3022 -96.8642 220° Southwest 399 459 36,000  Level Houston Center
Fri 06:42:32 PM 31.2161 -96.9492 220° Southwest 399 459 36,000  Level Houston Center
Fri 06:43:34 PM 31.1294 -97.0339 220° Southwest 402 463 36,000  Level Houston Center
Fri 06:44:36 PM 31.0275 -97.1328 220° Southwest 403 464 36,000  Level Houston Center
Fri 06:45:38 PM 30.9469 -97.2106 220° Southwest 408 470 36,000  Level Houston Center
Fri 06:46:40 PM 30.8603 -97.2964 220° Southwest 411 473 36,000  Level Houston Center
Fri 06:47:42 PM 30.7544 -97.3975 219° Southwest 411 473 36,000  Level Houston Center
Fri 06:48:44 PM 30.6681 -97.4822 220° Southwest 404 465 36,000  Level Houston Center
Fri 06:49:46 PM 30.5803 -97.5681 220° Southwest 408 470 36,000  Level Houston Center
Fri 06:50:48 PM 30.4933 -97.6517 220° Southwest 403 464 36,000  Level Houston Center
Fri 06:51:51 PM 30.3914 -97.7178 209° Southwest 413 475 36,000  Level Houston Center
Fri 06:52:53 PM 30.2900 -97.7800 208° Southwest 410 472 36,000  Level Houston Center
Fri 06:53:55 PM 30.1881 -97.8439 208° Southwest 411 473 36,000  Level Houston Center
Fri 06:54:57 PM 30.0706 -97.9167 208° Southwest 406 467 36,000  Level Houston Center
Fri 06:55:59 PM 29.9714 -97.9806 209° Southwest 408 470 36,000  Level Houston Center
Fri 06:57:01 PM 29.8633 -98.0478 208° Southwest 408 470 36,000  Level Houston Center
Fri 06:58:03 PM 29.7639 -98.1097 208° Southwest 406 467 36,000  Level Houston Center
Fri 06:59:05 PM 29.6564 -98.1769 209° Southwest 407 468 36,000  Level Houston Center
Fri 07:00:07 PM 29.5564 -98.2389 208° Southwest 407 468 36,000  Level Houston Center
Fri 07:01:09 PM 29.4553 -98.2997 208° Southwest 408 470 36,000 -484 Level Houston Center
Fri 07:02:11 PM 29.3467 -98.3683 209° Southwest 411 473 35,000 -919 Descending Houston Center
Fri 07:03:13 PM 29.2461 -98.4308 208° Southwest 410 472 34,100 -912 Descending Houston Center
Fri 07:04:16 PM 29.1372 -98.4986 209° Southwest 412 474 33,100 -960 Descending Houston Center
Fri 07:05:18 PM 29.0336 -98.5617 208° Southwest 419 482 32,100 -919 Descending Houston Center
Fri 07:06:20 PM 28.9297 -98.6250 208° Southwest 423 487 31,200 -1,065 Descending Houston Center
Fri 07:07:22 PM 28.8161 -98.6942 208° Southwest 427 491 29,900 -1,306 Descending Houston Center
Fri 07:08:24 PM 28.7089 -98.7600 208° Southwest 437 503 28,500 -1,452 Descending Houston Center
Fri 07:09:26 PM 28.6075 -98.8203 208° Southwest 448 516 26,900 -2,177 Descending Houston Center
Fri 07:10:28 PM 28.5022 -98.8850 208° Southwest 434 499 24,000 -2,661 Descending Houston Center
Fri 07:11:30 PM 28.3864 -98.9556 208° Southwest 396 456 21,400 -2,710 Descending Houston Center
Fri 07:12:32 PM 28.2928 -99.0117 208° Southwest 383 441 18,400 -3,194 Descending Houston Center
Fri 07:13:34 PM 28.1989 -99.0683 208° Southwest 383 441 14,800 -3,290 Descending Houston Center
Fri 07:14:36 PM 28.1053 -99.1253 208° Southwest 384 442 11,600 -1,984 Descending Houston Center
Fri 07:15:38 PM 28.0197 -99.1764 208° Southwest 349 402 10,700 -1,210 Descending Houston Center
Fri 07:16:40 PM 27.9336 -99.2281 208° Southwest 300 345 9,100 -1,488 Descending Houston Center
Fri 07:17:43 PM 27.8633 -99.2706 208° Southwest 294 338 7,600 -1,488 Descending Houston Center
Fri 07:18:45 PM 27.7950 -99.3122 208° Southwest 287 330 6,000 -1,355 Descending Houston Center
Fri 07:19:47 PM 27.7297 -99.3514 208° Southwest 278 320 4,800 -1,065 Descending Houston Center
Fri 07:20:49 PM 27.6850 -99.4072 228° Southwest 259 298 3,800 -968 Descending Houston Center
Fri 07:21:51 PM 27.6311 -99.4558 219° Southwest 224 258 2,800 -1,210 Descending Houston Center
Fri 07:22:53 PM 27.5883 -99.4603 185° South 181 208 1,300 -1,452 Descending Houston Center

Login

Don't have an account? Register now (free) for customized features, flight alerts, and more!